Latest Weather Observations for Croker Island Airport

IDD60801

Issued at 6:01 pm CST Friday 20 October 2017 (issued every 30 minutes, with the page automatically refreshed every 10 minutes)

About weather observations | Map of weather stations | Latest weather observations for NT | Other Formats
Station Details ID: 014308 Name: CROKER ISLAND AIRPORT Lat: -11.16 Lon: 132.48 Height: 9.2 m
Data from the previous 72 hours. | See also: Recent months at Croker Island Airport
Date/Time
CST
Temp
°C
App
Temp
°C
Dew
Point
°C
Rel
Hum
%
Delta-T
°C
Wind Press
QNH
hPa
Press
MSL
hPa
Rain since
9am
mm
Dir  Spd
km/h
Gust
km/h
Spd
kts
Gust
kts
20/06:00pm 29.8 31.7 20.6 57 6.1 NE 11 15 6 8 1009.8 1009.7 0.0
20/05:30pm 30.8 32.3 19.8 52 7.2 ENE 11 19 6 10 1009.8 1009.7 0.0
20/05:00pm 32.5 32.1 17.2 40 9.7 NE 15 22 8 12 1009.7 1009.6 0.0
20/04:30pm 32.6 33.2 17.6 40 9.6 ENE 11 22 6 12 1009.7 1009.6 0.0
20/04:00pm 32.1 32.4 17.9 42 9.1 NE 13 24 7 13 1009.7 1009.6 0.0
20/03:30pm 31.7 33.5 21.8 55 6.7 NE 15 22 8 12 1010.0 1009.9 0.0
20/03:00pm 31.5 33.2 21.7 56 6.6 NNE 15 24 8 13 1010.5 1010.4 0.0
20/02:30pm 33.4 35.2 22.5 52 7.5 NE 17 24 9 13 1010.5 1010.4 0.0
20/02:00pm 33.9 34.5 21.0 47 8.7 ENE 19 30 10 16 1010.7 1010.6 0.0
20/01:30pm 33.9 35.6 21.7 49 8.3 ENE 15 24 8 13 1010.9 1010.8 0.0
20/01:00pm 35.1 37.2 21.7 45 9.1 E 13 24 7 13 1011.3 1011.2 0.0
20/12:30pm 34.1 37.4 23.8 55 7.2 NNW 13 22 7 12 1011.7 1011.6 0.0
20/12:00pm 33.2 36.6 21.7 51 7.8 NE 6 13 3 7 1012.0 1011.9 0.0
20/11:30am 32.9 35.2 21.4 50 7.8 SSW 11 17 6 9 1012.1 1012.0 0.0
20/11:00am 32.5 35.0 21.7 53 7.3 SSW 11 15 6 8 1012.4 1012.3 0.0
20/10:30am 31.1 34.2 22.1 58 6.1 SSW 9 15 5 8 1012.6 1012.5 0.0
20/10:00am 31.2 33.9 21.4 56 6.6 SSW 9 13 5 7 1012.8 1012.7 0.0
20/09:30am 29.9 32.8 21.0 59 5.9 SSW 7 11 4 6 1012.9 1012.8 0.0
20/09:00am 30.2 33.5 21.8 60 5.7 SSW 7 9 4 5 1012.8 1012.7 0.0
20/08:30am 29.0 32.1 21.0 62 5.3 SSW 6 7 3 4 1012.6 1012.5 0.0
20/08:00am 29.3 33.3 21.3 62 5.3 ENE 2 4 1 2 1012.5 1012.4 0.0
20/07:30am 28.2 33.1 23.6 76 3.2 E 4 4 2 2 1012.2 1012.1 0.0
20/07:00am 25.4 29.5 22.9 86 1.7 E 6 6 3 3 1011.8 1011.7 0.0
20/06:30am 24.6 28.5 22.5 88 1.4 E 6 6 3 3 1011.3 1011.2 0.0
20/06:00am 24.5 28.7 22.4 88 1.4 E 4 6 2 3 1011.0 1010.9 0.0
20/05:30am 24.2 28.6 22.1 88 1.4 E 2 4 1 2 1010.8 1010.7 0.0
20/05:00am 24.1 27.6 22.2 89 1.3 ESE 7 7 4 4 1010.4 1010.3 0.0
20/04:30am 24.4 28.1 22.3 88 1.4 E 6 7 3 4 1010.1 1010.0 0.0
20/04:00am 24.8 29.9 22.7 88 1.4 CALM 0 0 0 0 1010.1 1010.0 0.0
20/03:30am 24.3 28.8 21.6 85 1.8 CALM 0 0 0 0 1010.1 1010.0 0.0
20/03:00am 24.7 29.0 22.0 85 1.8 E 2 4 1 2 1010.2 1010.1 0.0
20/02:30am 24.9 29.0 22.2 85 1.8 E 4 4 2 2 1010.3 1010.2 0.0
20/02:00am 24.9 28.7 21.6 82 2.2 ENE 4 4 2 2 1010.3 1010.2 0.0
20/01:30am 25.4 29.2 21.7 80 2.5 ENE 4 4 2 2 1010.5 1010.4 0.0
20/01:00am 26.4 30.5 22.3 78 2.8 ENE 4 6 2 3 1010.6 1010.5 0.0
20/12:30am 27.7 31.4 23.3 77 3.0 NNE 9 11 5 6 1010.8 1010.7 0.0
20/12:00am 27.8 32.0 23.4 77 3.0 NNE 7 13 4 7 1010.8 1010.7 0.0
 
Date/Time
CST
Temp
°C
App
Temp
°C
Dew
Point
°C
Rel
Hum
%
Delta-T
°C
Wind Press
QNH
hPa
Press
MSL
hPa
Rain since
9am
mm
Dir  Spd
km/h
Gust
km/h
Spd
kts
Gust
kts
19/11:30pm 27.8 31.6 23.4 77 3.0 NNE 9 15 5 8 1011.2 1011.1 0.0
19/11:00pm 27.9 31.6 23.3 76 3.1 NNE 9 17 5 9 1011.3 1011.2 0.0
19/10:30pm 28.0 31.1 22.9 74 3.5 NNE 11 17 6 9 1011.3 1011.2 0.0
19/10:00pm 28.3 30.8 22.5 71 3.9 NNE 13 19 7 10 1011.1 1011.0 0.0
19/09:30pm 28.3 31.6 22.5 71 3.9 NNE 9 15 5 8 1010.6 1010.5 0.0
19/09:00pm 27.9 31.9 22.8 74 3.5 NNE 6 9 3 5 1010.1 1010.0 0.0
19/08:30pm 27.9 32.1 23.1 75 3.3 NNE 6 13 3 7 1009.7 1009.6 0.0
19/08:00pm 28.0 31.5 22.9 74 3.5 NNE 9 13 5 7 1009.4 1009.3 0.0
19/07:30pm 28.3 31.5 23.0 73 3.6 NE 11 17 6 9 1008.9 1008.8 0.0
19/07:00pm 28.6 31.5 23.1 72 3.8 NNE 13 20 7 11 1008.0 1007.9 0.0
19/06:30pm 29.5 31.8 21.4 61 5.4 NE 11 17 6 9 1007.9 1007.8 0.0
19/06:00pm 30.9 32.9 19.9 52 7.3 NNE 9 15 5 8 1007.7 1007.6 0.0
19/05:30pm 31.6 34.2 21.2 54 7.0 N 9 13 5 7 1007.5 1007.4 0.0
19/05:00pm 31.8 34.7 22.5 58 6.4 NNE 11 17 6 9 1007.6 1007.5 0.0
19/04:30pm 32.4 35.1 22.2 55 7.0 N 11 17 6 9 1007.5 1007.4 0.0
19/04:00pm 32.9 36.1 23.0 56 6.8 NNW 11 19 6 10 1007.4 1007.3 0.0
19/03:30pm 33.3 35.4 22.4 52 7.5 N 15 22 8 12 1007.3 1007.2 0.0
19/03:00pm 33.0 34.6 22.1 52 7.4 N 17 22 9 12 1007.4 1007.3 0.0
19/02:30pm 33.8 36.2 22.9 53 7.5 N 15 22 8 12 1007.6 1007.5 0.0
19/02:00pm 33.2 34.5 22.3 52 7.5 N 19 24 10 13 1007.8 1007.7 0.0
19/01:30pm 33.4 35.5 23.1 54 7.1 N 17 26 9 14 1008.2 1008.1 0.0
19/01:00pm 33.8 36.3 23.2 54 7.3 NNW 15 22 8 12 1008.7 1008.6 0.0
19/12:30pm 33.3 35.7 23.6 56 6.8 N 17 24 9 13 1009.1 1009.0 0.0
19/12:00pm 33.1 35.6 23.1 55 6.9 N 15 20 8 11 1009.4 1009.3 0.0
19/11:30am 32.7 35.7 23.3 57 6.5 N 13 19 7 10 1010.0 1009.9 0.0
19/11:00am 32.4 35.7 23.9 61 5.9 NNW 13 19 7 10 1010.2 1010.1 0.0
19/10:30am 32.1 35.7 23.1 59 6.2 N 9 17 5 9 1010.3 1010.2 0.0
19/10:00am 31.9 35.3 23.4 60 5.9 N 11 19 6 10 1010.5 1010.4 0.0
19/09:30am 31.6 34.9 22.6 59 6.2 NNE 9 15 5 8 1010.6 1010.5 0.0
19/09:00am 31.4 35.2 23.5 63 5.5 NNE 9 13 5 7 1010.7 1010.6 0.0
19/08:30am 30.7 34.8 23.9 67 4.7 NE 9 17 5 9 1010.5 1010.4 0.0
19/08:00am 29.0 33.9 24.6 77 3.1 NE 7 11 4 6 1010.3 1010.2 0.0
19/07:30am 28.4 33.0 24.8 81 2.5 NNE 9 13 5 7 1010.0 1009.9 0.0
19/07:00am 28.2 32.9 25.0 83 2.2 NE 9 13 5 7 1009.7 1009.6 0.0
19/06:30am 27.7 32.8 24.7 84 2.1 NE 6 9 3 5 1009.3 1009.2 0.0
19/06:00am 27.5 32.6 24.6 84 2.0 ENE 6 7 3 4 1008.9 1008.8 0.0
19/05:30am 27.7 32.7 24.5 83 2.2 ENE 6 7 3 4 1008.7 1008.6 0.0
19/05:00am 28.1 33.0 24.7 82 2.4 NE 7 13 4 7 1008.4 1008.3 0.0
19/04:30am 28.1 32.8 24.9 83 2.2 NE 9 15 5 8 1008.0 1007.9 0.0
19/04:00am 27.9 33.0 24.7 83 2.2 ENE 6 7 3 4 1007.9 1007.8 0.0
19/03:30am 28.0 33.2 24.8 83 2.2 NE 6 9 3 5 1007.8 1007.7 0.0
19/03:00am 28.1 33.2 24.9 83 2.2 NE 7 13 4 7 1007.6 1007.5 0.0
19/02:30am 28.3 33.1 25.1 83 2.2 NE 9 15 5 8 1007.9 1007.8 0.0
19/02:00am 27.8 32.2 24.4 82 2.4 NE 9 13 5 7 1008.1 1008.0 0.0
19/01:30am 27.4 31.4 23.8 81 2.5 E 9 15 5 8 1008.6 1008.5 0.0
19/01:00am 28.4 33.0 24.2 78 2.9 NNE 7 13 4 7 1008.3 1008.2 0.0
19/12:30am 28.0 32.6 24.2 80 2.6 NNE 7 11 4 6 1008.4 1008.3 0.0
19/12:00am 27.8 32.5 24.0 80 2.6 NE 6 9 3 5 1008.7 1008.6 0.0
 
Date/Time
CST
Temp
°C
App
Temp
°C
Dew
Point
°C
Rel
Hum
%
Delta-T
°C
Wind Press
QNH
hPa
Press
MSL
hPa
Rain since
9am
mm
Dir  Spd
km/h
Gust
km/h
Spd
kts
Gust
kts
18/11:30pm 28.3 33.2 24.3 79 2.8 NE 6 9 3 5 1008.9 1008.8 0.0
18/11:00pm 28.7 33.5 24.5 78 2.9 NE 7 11 4 6 1009.2 1009.1 0.0
18/10:30pm 28.6 33.5 24.6 79 2.8 NNE 7 13 4 7 1009.2 1009.1 0.0
18/10:00pm 28.3 33.2 24.3 79 2.8 NE 6 7 3 4 1009.1 1009.0 0.0
18/09:30pm 28.4 33.6 24.2 78 2.9 ENE 4 6 2 3 1009.0 1008.9 0.0
18/09:00pm 28.7 33.8 24.7 79 2.8 NNE 6 9 3 5 1008.7 1008.6 0.0
18/08:30pm 28.6 33.8 24.2 77 3.1 NNE 4 6 2 3 1008.6 1008.5 0.0
18/08:00pm 28.8 33.2 24.4 77 3.1 NNE 9 15 5 8 1008.2 1008.1 0.0
18/07:30pm 28.9 33.2 24.2 76 3.3 NNE 9 11 5 6 1007.9 1007.8 0.0
18/07:00pm 29.0 33.1 23.9 74 3.5 N 9 13 5 7 1007.5 1007.4 0.0
18/06:30pm 29.4 33.0 24.3 74 3.6 N 13 19 7 10 1006.6 1006.5 0.0
18/06:00pm 29.7 33.5 24.1 72 3.9 N 11 15 6 8 1006.6 1006.5 0.0
18/05:30pm 30.3 34.6 24.2 70 4.3 N 9 13 5 7 1006.4 1006.3 0.0
18/05:00pm 30.7 35.2 24.6 70 4.3 N 9 13 5 7 1006.3 1006.2 0.0
18/04:30pm 31.0 34.6 24.4 68 4.6 N 13 17 7 9 1006.3 1006.2 0.0
18/04:00pm 31.9 35.7 24.7 65 5.1 N 13 19 7 10 1006.3 1006.2 0.0
18/03:30pm 30.8 34.3 24.2 68 4.6 N 13 19 7 10 1006.5 1006.4 0.0
18/03:00pm 30.9 34.2 23.8 66 4.9 NNW 13 19 7 10 1006.7 1006.6 0.0
18/02:30pm 31.4 33.7 22.1 57 6.3 NNW 13 19 7 10 1007.0 1006.9 0.0
18/02:00pm 31.8 34.8 23.3 60 5.9 N 13 19 7 10 1007.4 1007.3 0.0
18/01:30pm 32.0 36.7 23.3 60 6.0 SE 4 20 2 11 1007.8 1007.7 0.0
18/01:00pm 31.8 35.3 22.8 59 6.2 SSE 9 17 5 9 1008.3 1008.2 0.0
18/12:30pm 32.9 36.1 23.0 56 6.8 S 11 19 6 10 1008.6 1008.5 0.0
18/12:00pm 32.2 35.9 23.2 59 6.2 SSW 9 17 5 9 1009.0 1008.9 0.0
18/11:30am 31.8 35.8 23.1 60 6.0 SW 7 11 4 6 1009.3 1009.2 0.0
18/11:00am 30.9 34.8 22.5 61 5.7 SW 6 9 3 5 1009.5 1009.4 0.0
18/10:30am 30.6 33.9 21.4 58 6.2 SSW 6 7 3 4 1009.8 1009.7 0.0
18/10:00am 29.8 33.5 22.3 64 5.1 SSW 6 9 3 5 1010.2 1010.1 0.0
18/09:30am 28.6 32.0 21.6 66 4.7 SSW 6 9 3 5 1010.3 1010.2 0.0
18/09:00am 28.1 32.1 22.1 70 4.0 SSW 4 6 2 3 1010.6 1010.5 0.8
18/08:30am 27.6 31.0 21.6 70 4.0 S 6 9 3 5 1010.6 1010.5 0.8
18/08:00am 27.0 31.2 22.4 76 3.1 SE 4 6 2 3 1010.3 1010.2 0.8
18/07:30am 25.8 27.6 21.2 76 3.0 ENE 13 20 7 11 1010.1 1010.0 0.8
18/07:00am 25.3 27.6 21.4 79 2.6 S 11 19 6 10 1009.8 1009.7 0.8
18/06:30am 26.7 28.1 22.8 79 2.6 SSW 20 32 11 17 1009.1 1009.0 0.8
18/06:00am 27.0 32.7 23.7 82 2.3 CALM 0 0 0 0 1008.4 1008.3 0.8
18/05:30am 27.0 32.7 23.7 82 2.3 CALM 0 0 0 0 1008.4 1008.3 0.8
18/05:00am 27.3 32.6 23.7 81 2.5 N 2 4 1 2 1007.7 1007.6 0.8
18/04:30am 27.3 31.6 23.7 81 2.5 W 7 9 4 5 1007.4 1007.3 0.8
18/04:00am 27.1 30.8 22.3 75 3.2 NNW 6 9 3 5 1007.1 1007.0 0.8
18/03:30am 28.0 32.5 25.2 85 2.0 NNW 11 17 6 9 1007.1 1007.0 0.8
18/03:00am 27.9 32.3 25.1 85 2.0 NNW 11 15 6 8 1007.1 1007.0 0.8
18/02:30am 28.0 32.5 25.2 85 2.0 N 11 17 6 9 1007.2 1007.1 0.8
18/02:00am 28.0 32.6 24.8 83 2.2 N 9 15 5 8 1007.6 1007.5 0.8
18/01:30am 27.7 32.1 24.5 83 2.2 N 9 13 5 7 1007.8 1007.7 0.8
18/01:00am 27.5 32.0 24.6 84 2.0 N 9 13 5 7 1008.0 1007.9 0.8
18/12:30am 27.4 31.5 24.5 84 2.0 N 11 17 6 9 1008.3 1008.2 0.8
18/12:00am 27.3 32.1 24.4 84 2.0 NNE 7 11 4 6 1008.5 1008.4 0.8
 
Date/Time
CST
Temp
°C
App
Temp
°C
Dew
Point
°C
Rel
Hum
%
Delta-T
°C
Wind Press
QNH
hPa
Press
MSL
hPa
Rain since
9am
mm
Dir  Spd
km/h
Gust
km/h
Spd
kts
Gust
kts
17/11:30pm 27.5 31.5 24.4 83 2.2 NNE 11 17 6 9 1008.5 1008.4 0.8
17/11:00pm 28.5 32.4 24.9 81 2.5 N 13 19 7 10 1008.5 1008.4 0.8
17/10:30pm 28.4 32.9 25.2 83 2.2 NNE 11 17 6 9 1008.6 1008.5 0.8
17/10:00pm 28.6 32.6 25.0 81 2.5 N 13 19 7 10 1008.2 1008.1 0.8
17/09:30pm 28.6 33.0 25.0 81 2.5 N 11 15 6 8 1007.8 1007.7 0.8
17/09:00pm 28.7 33.1 25.1 81 2.5 N 11 17 6 9 1007.5 1007.4 0.8
17/08:30pm 28.6 33.0 24.4 78 2.9 N 9 13 5 7 1006.8 1006.7 0.8
17/08:00pm 28.7 32.9 24.7 79 2.8 NNW 11 17 6 9 1006.5 1006.4 0.8
17/07:30pm 28.6 33.5 24.6 79 2.8 NNW 7 13 4 7 1006.6 1006.5 0.8
17/07:00pm 28.7 32.9 24.7 79 2.8 NW 11 17 6 9 1006.1 1006.0 0.8
17/06:30pm 29.0 33.1 24.6 77 3.1 NW 11 20 6 11 1006.1 1006.0 0.8

Other Formats:

Comma delimited format used in spreadsheet applications
http://www.bom.gov.au/fwo/IDD60801/IDD60801.94108.axf

JavaScript Object Notation format (JSON) in row-major order
http://www.bom.gov.au/fwo/IDD60801/IDD60801.94108.json